createdAt,value
2018-01-03T00:00:21.550Z,89.05
2018-01-03T00:02:49.158Z,89.19
2018-01-03T00:05:16.697Z,89.28
2018-01-03T00:07:44.260Z,89.29
2018-01-03T00:10:11.805Z,89.43
2018-01-03T00:12:39.437Z,89.39
2018-01-03T00:15:06.977Z,89.70
2018-01-03T00:17:34.515Z,90.19
2018-01-03T00:20:02.062Z,90.34
2018-01-03T00:22:29.603Z,89.36
2018-01-03T00:24:57.177Z,88.29
2018-01-03T00:27:24.730Z,87.21
2018-01-03T00:29:52.308Z,87.79
2018-01-03T00:32:19.851Z,87.58
2018-01-03T00:34:47.442Z,87.10
2018-01-03T00:37:15.081Z,86.90
2018-01-03T00:39:42.682Z,86.61
2018-01-03T00:42:10.225Z,86.59
2018-01-03T00:44:37.779Z,86.53
2018-01-03T00:47:05.362Z,86.83
2018-01-03T00:49:32.945Z,87.09
2018-01-03T00:52:00.481Z,87.00
2018-01-03T00:54:28.089Z,87.02
2018-01-03T00:56:55.645Z,87.00
2018-01-03T00:59:23.189Z,87.02
2018-01-03T01:01:50.818Z,86.93
2018-01-03T01:04:18.417Z,87.21
2018-01-03T01:06:45.957Z,87.17
2018-01-03T01:09:13.518Z,87.23
2018-01-03T01:11:41.061Z,86.97
2018-01-03T01:14:08.702Z,87.02
2018-01-03T01:16:36.242Z,87.17
2018-01-03T01:19:03.784Z,87.09
2018-01-03T01:21:31.398Z,86.83
2018-01-03T01:23:58.945Z,86.23
2018-01-03T01:26:26.522Z,84.73
2018-01-03T01:28:54.117Z,84.81
2018-01-03T01:31:21.720Z,84.70
2018-01-03T01:33:49.335Z,84.55
2018-01-03T01:36:16.882Z,84.15
2018-01-03T01:38:44.459Z,83.53
2018-01-03T01:41:12.061Z,83.77
2018-01-03T01:43:39.600Z,83.14
2018-01-03T01:46:07.145Z,83.19
2018-01-03T01:48:34.691Z,82.68
2018-01-03T01:51:02.349Z,81.80
2018-01-03T01:53:29.887Z,81.27
2018-01-03T01:55:57.421Z,82.03
2018-01-03T01:58:24.969Z,81.66
2018-01-03T02:00:52.509Z,80.37
2018-01-03T02:03:20.090Z,80.64
2018-01-03T02:05:47.677Z,80.93
2018-01-03T02:08:15.209Z,81.55
2018-01-03T02:10:42.804Z,82.01
2018-01-03T02:13:10.401Z,82.53
2018-01-03T02:15:37.989Z,82.14
2018-01-03T02:18:05.551Z,82.53
2018-01-03T02:20:33.176Z,82.83
2018-01-03T02:23:00.792Z,82.73
2018-01-03T02:25:28.394Z,81.34
2018-01-03T02:27:56.029Z,79.94
2018-01-03T02:30:23.642Z,81.22
2018-01-03T02:32:51.238Z,81.35
2018-01-03T02:35:18.782Z,80.69
2018-01-03T02:37:46.322Z,80.70
2018-01-03T02:40:13.965Z,79.04
2018-01-03T02:42:41.570Z,79.58
2018-01-03T02:45:09.105Z,78.86
2018-01-03T02:47:36.705Z,78.63
2018-01-03T02:50:04.298Z,78.90
2018-01-03T02:52:31.877Z,78.54
2018-01-03T02:54:59.470Z,79.24
2018-01-03T02:57:27.078Z,79.63
2018-01-03T02:59:54.694Z,80.18
2018-01-03T03:02:22.298Z,80.27
2018-01-03T03:04:49.866Z,80.29
2018-01-03T03:07:17.463Z,77.55
2018-01-03T03:09:45.017Z,77.32
2018-01-03T03:12:12.564Z,77.63
2018-01-03T03:14:40.098Z,77.59
2018-01-03T03:17:07.730Z,77.54
2018-01-03T03:19:35.265Z,77.27
2018-01-03T03:22:02.830Z,77.42
2018-01-03T03:24:30.462Z,80.37
2018-01-03T03:26:58.065Z,80.34
2018-01-03T03:29:25.641Z,80.45
2018-01-03T03:31:53.177Z,80.36
2018-01-03T03:34:20.770Z,77.92
2018-01-03T03:36:48.376Z,79.23
2018-01-03T03:39:15.975Z,80.08
2018-01-03T03:41:43.554Z,80.07
2018-01-03T03:44:11.089Z,78.08
2018-01-03T03:46:38.616Z,77.05
2018-01-03T03:49:06.162Z,77.34
2018-01-03T03:51:33.693Z,77.07
2018-01-03T03:54:01.300Z,77.29
2018-01-03T03:56:28.833Z,77.70
2018-01-03T03:58:56.378Z,78.01
2018-01-03T04:01:23.937Z,78.00
2018-01-03T04:03:51.472Z,77.64
2018-01-03T04:06:19.045Z,77.76
2018-01-03T04:08:46.638Z,77.40
2018-01-03T04:11:14.173Z,77.41
2018-01-03T04:13:41.713Z,76.40
2018-01-03T04:16:09.310Z,75.62
2018-01-03T04:18:36.937Z,76.68
2018-01-03T04:21:04.469Z,75.77
2018-01-03T04:23:32.061Z,76.28
2018-01-03T04:25:59.661Z,76.02
2018-01-03T04:28:27.202Z,75.98
2018-01-03T04:30:54.778Z,75.92
2018-01-03T04:33:22.313Z,75.76
2018-01-03T04:35:49.845Z,75.31
2018-01-03T04:38:17.381Z,75.91
2018-01-03T04:40:44.986Z,75.86
2018-01-03T04:43:12.621Z,75.89
2018-01-03T04:45:40.160Z,75.80
2018-01-03T04:48:07.758Z,75.41
2018-01-03T04:50:35.300Z,75.26
2018-01-03T04:53:02.853Z,75.26
2018-01-03T04:55:30.501Z,75.38
2018-01-03T04:57:58.038Z,75.52
2018-01-03T05:00:25.578Z,75.16
2018-01-03T05:02:53.130Z,75.48
2018-01-03T05:05:20.669Z,75.26
2018-01-03T05:07:48.259Z,75.55
2018-01-03T05:10:15.809Z,75.26
2018-01-03T05:12:43.356Z,75.70
2018-01-03T05:15:10.914Z,75.29
2018-01-03T05:17:38.466Z,73.91
2018-01-03T05:20:06.041Z,72.74
2018-01-03T05:22:33.653Z,72.83
2018-01-03T05:25:01.237Z,73.52
2018-01-03T05:27:28.830Z,73.19
2018-01-03T05:29:56.365Z,72.27
2018-01-03T05:32:23.938Z,72.55
2018-01-03T05:34:51.485Z,72.80
2018-01-03T05:37:19.025Z,73.20
2018-01-03T05:39:46.570Z,73.37
2018-01-03T05:42:14.118Z,72.86
2018-01-03T05:44:41.698Z,73.05
2018-01-03T05:47:09.240Z,73.12
2018-01-03T05:49:36.777Z,73.09
2018-01-03T05:52:04.382Z,73.14
2018-01-03T05:54:31.929Z,73.50
2018-01-03T05:56:59.592Z,73.53
2018-01-03T05:59:27.139Z,72.98
2018-01-03T06:01:54.682Z,73.53
2018-01-03T06:04:22.291Z,73.60
2018-01-03T06:06:49.834Z,73.88
2018-01-03T06:09:17.473Z,73.82
2018-01-03T06:11:45.018Z,73.72
2018-01-03T06:14:12.549Z,73.24
2018-01-03T06:16:40.107Z,73.54
2018-01-03T06:19:07.706Z,73.84
2018-01-03T06:21:35.283Z,73.99
2018-01-03T06:24:02.836Z,73.70
2018-01-03T06:26:30.385Z,73.35
2018-01-03T06:28:57.929Z,73.35
2018-01-03T06:31:25.520Z,72.53
2018-01-03T06:33:53.189Z,73.00
2018-01-03T06:36:20.730Z,73.20
2018-01-03T06:38:48.270Z,73.08
2018-01-03T06:41:15.838Z,73.71
2018-01-03T06:43:43.386Z,74.13
2018-01-03T06:46:10.967Z,74.63
2018-01-03T06:48:38.509Z,74.79
2018-01-03T06:51:06.052Z,74.61
2018-01-03T06:53:33.666Z,74.62
2018-01-03T06:56:01.215Z,74.45
2018-01-03T06:58:28.808Z,74.87
2018-01-03T07:00:56.348Z,75.48
2018-01-03T07:03:23.904Z,75.06
2018-01-03T07:05:51.527Z,75.29
2018-01-03T07:08:19.128Z,74.96
2018-01-03T07:10:46.711Z,72.54
2018-01-03T07:13:14.268Z,71.70
2018-01-03T07:15:41.870Z,71.54
2018-01-03T07:18:09.411Z,71.77
2018-01-03T07:20:36.996Z,71.29
2018-01-03T07:23:04.570Z,71.21
2018-01-03T07:25:32.109Z,70.81
2018-01-03T07:27:59.643Z,69.56
2018-01-03T07:30:27.193Z,70.26
2018-01-03T07:32:54.741Z,69.87
2018-01-03T07:35:22.317Z,69.79
2018-01-03T07:37:49.853Z,68.40
2018-01-03T07:40:17.392Z,67.56
2018-01-03T07:42:44.993Z,66.26
2018-01-03T07:45:12.597Z,65.70
2018-01-03T07:47:40.162Z,65.15
2018-01-03T07:50:07.693Z,66.19
2018-01-03T07:52:35.235Z,65.68
2018-01-03T07:55:02.798Z,67.30
2018-01-03T07:57:30.398Z,66.01
2018-01-03T07:59:57.969Z,66.96
2018-01-03T08:02:25.500Z,67.33
2018-01-03T08:04:53.039Z,68.62
2018-01-03T08:07:20.645Z,70.40
2018-01-03T08:09:48.242Z,70.49
2018-01-03T08:12:15.876Z,69.20
2018-01-03T08:14:43.466Z,68.95
2018-01-03T08:17:10.999Z,68.49
2018-01-03T08:19:38.551Z,68.23
2018-01-03T08:22:06.158Z,67.00
2018-01-03T08:24:33.734Z,65.09
2018-01-03T08:27:01.278Z,65.84
2018-01-03T08:29:28.839Z,65.50
2018-01-03T08:31:56.395Z,64.10
2018-01-03T08:34:23.941Z,64.23
2018-01-03T08:36:51.571Z,65.28
2018-01-03T08:39:19.106Z,65.76
2018-01-03T08:41:46.645Z,66.19
2018-01-03T08:44:14.197Z,66.58
2018-01-03T08:46:41.797Z,66.95
2018-01-03T08:49:09.382Z,67.13
2018-01-03T08:51:36.981Z,67.04
2018-01-03T08:54:04.573Z,67.22
2018-01-03T08:56:32.117Z,66.81
2018-01-03T08:58:59.659Z,65.96
2018-01-03T09:01:27.237Z,65.81
2018-01-03T09:03:54.769Z,64.98
2018-01-03T09:06:22.322Z,63.02
2018-01-03T09:08:49.934Z,62.02
2018-01-03T09:11:17.478Z,59.55
2018-01-03T09:13:45.064Z,59.47
2018-01-03T09:16:12.606Z,58.74
2018-01-03T09:18:40.213Z,58.22
2018-01-03T09:21:07.833Z,58.06
2018-01-03T09:23:35.368Z,58.10
2018-01-03T09:26:02.962Z,58.69
2018-01-03T09:28:30.507Z,59.62
2018-01-03T09:30:58.075Z,60.81
2018-01-03T09:33:25.686Z,61.52
2018-01-03T09:35:53.294Z,62.16
2018-01-03T09:38:20.865Z,61.98
2018-01-03T09:40:48.462Z,63.43
2018-01-03T09:43:16.070Z,64.11
2018-01-03T09:45:43.617Z,64.45
2018-01-03T09:48:11.209Z,65.70
2018-01-03T09:50:38.797Z,65.45
2018-01-03T09:53:06.348Z,65.47
2018-01-03T09:55:33.913Z,65.00
2018-01-03T09:58:01.465Z,64.87
2018-01-03T10:00:29.028Z,63.68
2018-01-03T10:02:56.690Z,64.16
2018-01-03T10:05:24.251Z,63.31
2018-01-03T10:07:51.797Z,63.13
2018-01-03T10:10:19.452Z,62.51
2018-01-03T10:12:46.996Z,61.79
2018-01-03T10:15:14.586Z,61.73
2018-01-03T10:17:42.127Z,61.14
2018-01-03T10:20:09.672Z,61.25
2018-01-03T10:22:37.221Z,61.90
2018-01-03T10:25:04.762Z,61.82
2018-01-03T10:27:32.347Z,61.66
2018-01-03T10:29:59.889Z,62.13
2018-01-03T10:32:27.506Z,61.73
2018-01-03T10:34:55.074Z,61.29
2018-01-03T10:37:22.621Z,61.11
2018-01-03T10:39:50.205Z,60.63
2018-01-03T10:42:17.807Z,61.12
2018-01-03T10:44:45.358Z,59.99
2018-01-03T10:47:13.117Z,60.08
2018-01-03T10:49:40.674Z,58.11
2018-01-03T10:52:08.661Z,56.24
2018-01-03T10:54:36.263Z,56.87
2018-01-03T10:57:03.806Z,55.95
2018-01-03T10:59:31.474Z,56.47
2018-01-03T11:01:59.017Z,54.67
2018-01-03T11:04:26.671Z,56.37
2018-01-03T11:06:54.218Z,55.24
2018-01-03T11:09:21.765Z,56.02
2018-01-03T11:11:49.323Z,56.76
2018-01-03T11:14:16.929Z,57.40
2018-01-03T11:16:44.517Z,58.21
2018-01-03T11:19:12.061Z,57.56
2018-01-03T11:21:39.670Z,58.22
2018-01-03T11:24:07.314Z,59.71
2018-01-03T11:26:34.865Z,60.07
2018-01-03T11:29:02.442Z,59.91
2018-01-03T11:31:29.981Z,59.01
2018-01-03T11:33:57.581Z,59.94
2018-01-03T11:36:25.189Z,60.35
2018-01-03T11:38:52.738Z,60.26
2018-01-03T11:41:20.325Z,61.46
2018-01-03T11:43:47.873Z,61.43
2018-01-03T11:46:15.473Z,60.89
2018-01-03T11:48:43.078Z,61.00
2018-01-03T11:51:10.634Z,60.61
2018-01-03T11:53:38.278Z,61.28
2018-01-03T11:56:05.841Z,61.71
2018-01-03T11:58:33.369Z,61.76
2018-01-03T12:01:00.986Z,61.80
2018-01-03T12:03:28.585Z,61.78
2018-01-03T12:05:56.165Z,62.26
2018-01-03T12:08:23.762Z,62.72
2018-01-03T12:10:51.393Z,63.13
2018-01-03T12:13:18.945Z,62.55
2018-01-03T12:15:46.550Z,62.51
2018-01-03T12:18:14.191Z,63.32
2018-01-03T12:20:41.733Z,63.24
2018-01-03T12:23:09.277Z,62.72
2018-01-03T12:25:36.830Z,63.06
2018-01-03T12:28:04.362Z,63.98
2018-01-03T12:30:31.967Z,65.17
2018-01-03T12:32:59.516Z,65.27
2018-01-03T12:35:27.050Z,64.36
2018-01-03T12:37:54.606Z,64.92
2018-01-03T12:40:22.202Z,65.24
2018-01-03T12:42:49.783Z,65.02
2018-01-03T12:45:17.331Z,64.68
2018-01-03T12:47:44.941Z,64.60
2018-01-03T12:50:12.507Z,64.59
2018-01-03T12:52:40.111Z,63.96
2018-01-03T12:55:07.689Z,63.22
2018-01-03T12:57:35.230Z,63.30
2018-01-03T13:00:02.843Z,63.13
2018-01-03T13:02:30.400Z,62.75
2018-01-03T13:04:58.068Z,63.14
2018-01-03T13:07:25.649Z,63.62
2018-01-03T13:09:53.251Z,63.13
2018-01-03T13:12:20.790Z,63.43
2018-01-03T13:14:48.346Z,62.82
2018-01-03T13:17:15.880Z,62.87
2018-01-03T13:19:43.461Z,62.50
2018-01-03T13:22:11.070Z,62.53
2018-01-03T13:24:38.610Z,62.03
2018-01-03T13:27:06.161Z,62.20
2018-01-03T13:29:33.697Z,62.25
2018-01-03T13:32:01.357Z,62.46
2018-01-03T13:34:28.905Z,63.04
2018-01-03T13:36:56.445Z,62.57
2018-01-03T13:39:24.005Z,63.41
2018-01-03T13:41:51.546Z,63.32
2018-01-03T13:44:19.116Z,63.54
2018-01-03T13:46:46.657Z,63.56
2018-01-03T13:49:14.195Z,63.83
2018-01-03T13:51:41.799Z,63.43
2018-01-03T13:54:09.336Z,63.10
2018-01-03T13:56:36.910Z,63.60
2018-01-03T13:59:04.446Z,63.66
2018-01-03T14:01:32.050Z,63.97
2018-01-03T14:03:59.664Z,63.20
2018-01-03T14:06:27.206Z,63.48
2018-01-03T14:08:54.916Z,63.08
2018-01-03T14:11:22.464Z,63.08
2018-01-03T14:13:50.010Z,63.56
2018-01-03T14:16:17.562Z,63.56
2018-01-03T14:18:45.165Z,63.65
2018-01-03T14:21:12.736Z,64.15
2018-01-03T14:23:40.329Z,65.07
2018-01-03T14:26:07.909Z,65.71
2018-01-03T14:28:35.456Z,67.15
2018-01-03T14:31:03.000Z,67.40
2018-01-03T14:33:30.581Z,67.94
2018-01-03T14:35:58.131Z,68.25
2018-01-03T14:38:25.671Z,68.87
2018-01-03T14:40:53.212Z,69.48
2018-01-03T14:43:20.814Z,69.64
2018-01-03T14:45:48.443Z,70.27
2018-01-03T14:48:16.047Z,71.13
2018-01-03T14:50:43.622Z,71.76
2018-01-03T14:53:11.222Z,71.91
2018-01-03T14:55:38.833Z,72.27
2018-01-03T14:58:06.408Z,72.74
2018-01-03T15:00:34.023Z,72.84
2018-01-03T15:03:01.566Z,72.89
2018-01-03T15:05:29.114Z,73.19
2018-01-03T15:07:56.719Z,73.48
2018-01-03T15:10:24.298Z,73.65
2018-01-03T15:12:51.893Z,74.16
2018-01-03T15:15:19.429Z,74.38
2018-01-03T15:17:46.982Z,74.63
2018-01-03T15:20:14.532Z,75.04
2018-01-03T15:22:42.141Z,75.36
2018-01-03T15:25:09.748Z,75.67
2018-01-03T15:27:37.296Z,75.96
2018-01-03T15:30:04.918Z,76.09
2018-01-03T15:32:32.461Z,76.25
2018-01-03T15:35:00.111Z,76.32
2018-01-03T15:37:27.658Z,76.39
2018-01-03T15:39:55.269Z,76.74
2018-01-03T15:42:22.838Z,77.25
2018-01-03T15:44:50.389Z,77.42
2018-01-03T15:47:17.985Z,77.59
2018-01-03T15:49:45.526Z,77.92
2018-01-03T15:52:13.073Z,77.93
2018-01-03T15:54:40.625Z,77.90
2018-01-03T15:57:08.171Z,77.88
2018-01-03T15:59:35.817Z,77.71
2018-01-03T16:02:03.498Z,77.85
2018-01-03T16:04:31.047Z,77.94
2018-01-03T16:06:58.599Z,78.04
2018-01-03T16:09:26.152Z,78.22
2018-01-03T16:11:53.725Z,78.14
2018-01-03T16:14:21.275Z,78.04
2018-01-03T16:16:48.825Z,78.36
2018-01-03T16:19:16.437Z,78.41
2018-01-03T16:21:44.034Z,78.94
2018-01-03T16:24:11.632Z,78.91
2018-01-03T16:26:39.169Z,78.93
2018-01-03T16:29:06.775Z,79.10
2018-01-03T16:31:34.426Z,79.21
2018-01-03T16:34:01.962Z,79.05
2018-01-03T16:36:29.598Z,79.11
2018-01-03T16:38:57.141Z,79.22
2018-01-03T16:41:24.684Z,79.47
2018-01-03T16:43:52.290Z,79.68
2018-01-03T16:46:19.833Z,80.04
2018-01-03T16:48:47.466Z,80.30
2018-01-03T16:51:15.057Z,80.38
2018-01-03T16:53:42.621Z,80.66
2018-01-03T16:56:10.169Z,80.84
2018-01-03T16:58:37.765Z,80.84
2018-01-03T17:01:05.434Z,80.62
2018-01-03T17:03:32.981Z,80.67
2018-01-03T17:06:00.521Z,80.55
2018-01-03T17:08:28.159Z,80.52
2018-01-03T17:10:55.774Z,80.57
2018-01-03T17:13:23.409Z,80.46
2018-01-03T17:15:51.010Z,80.76
2018-01-03T17:18:18.553Z,80.89
2018-01-03T17:20:46.172Z,81.26
2018-01-03T17:23:13.843Z,81.79
2018-01-03T17:25:41.969Z,81.81
2018-01-03T17:28:09.514Z,82.20
2018-01-03T17:30:37.061Z,82.30
2018-01-03T17:33:04.617Z,82.42
2018-01-03T17:35:32.214Z,82.79
2018-01-03T17:37:59.861Z,82.64
2018-01-03T17:40:27.458Z,82.53
2018-01-03T17:42:54.997Z,83.21
2018-01-03T17:45:22.618Z,83.78
2018-01-03T17:47:50.175Z,83.86
2018-01-03T17:50:17.759Z,83.61
2018-01-03T17:52:45.370Z,83.40
2018-01-03T17:55:12.921Z,82.97
2018-01-03T17:57:40.543Z,82.88
2018-01-03T18:00:08.161Z,83.18
2018-01-03T18:02:35.753Z,83.55
2018-01-03T18:05:03.311Z,84.25
2018-01-03T18:07:30.914Z,84.22
2018-01-03T18:09:58.464Z,84.10
2018-01-03T18:12:26.016Z,84.05
2018-01-03T18:14:53.649Z,83.99
2018-01-03T18:17:21.251Z,83.88
2018-01-03T18:19:48.794Z,84.00
2018-01-03T18:22:16.344Z,83.84
2018-01-03T18:24:43.900Z,83.75
2018-01-03T18:27:11.536Z,83.56
2018-01-03T18:29:39.142Z,83.22
2018-01-03T18:32:06.683Z,83.22
2018-01-03T18:34:34.237Z,83.15
2018-01-03T18:37:01.861Z,83.51
2018-01-03T18:39:29.456Z,83.87
2018-01-03T18:41:57.073Z,84.02
2018-01-03T18:44:24.622Z,84.35
2018-01-03T18:46:52.173Z,84.71
2018-01-03T18:49:19.709Z,84.99
2018-01-03T18:51:47.289Z,85.10
2018-01-03T18:54:14.833Z,84.91
2018-01-03T18:56:42.373Z,84.80
2018-01-03T18:59:09.926Z,84.72
2018-01-03T19:01:37.526Z,84.86
2018-01-03T19:04:05.106Z,84.92
2018-01-03T19:06:32.719Z,84.76
2018-01-03T19:09:00.331Z,84.99
2018-01-03T19:11:27.889Z,84.82
2018-01-03T19:13:55.429Z,84.67
2018-01-03T19:16:23.086Z,84.80
2018-01-03T19:18:50.627Z,84.97
2018-01-03T19:21:18.174Z,84.80
2018-01-03T19:23:45.725Z,85.12
2018-01-03T19:26:13.268Z,85.34
2018-01-03T19:28:41.367Z,85.36
2018-01-03T19:31:08.911Z,84.98
2018-01-03T19:33:36.453Z,84.99
2018-01-03T19:36:04.005Z,85.27
2018-01-03T19:38:31.556Z,85.24
2018-01-03T19:40:59.136Z,85.12
2018-01-03T19:43:26.741Z,84.74
2018-01-03T19:45:54.278Z,84.78
2018-01-03T19:48:21.825Z,84.84
2018-01-03T19:50:49.356Z,84.89
2018-01-03T19:53:17.005Z,84.69
2018-01-03T19:55:44.611Z,84.45
2018-01-03T19:58:12.233Z,84.68
2018-01-03T20:00:39.919Z,85.04
2018-01-03T20:03:07.530Z,85.38
2018-01-03T20:05:35.194Z,85.84
2018-01-03T20:08:02.802Z,86.04
2018-01-03T20:10:30.414Z,86.05
2018-01-03T20:12:58.031Z,85.98
2018-01-03T20:15:25.639Z,86.20
2018-01-03T20:17:53.363Z,86.20
2018-01-03T20:20:21.026Z,86.13
2018-01-03T20:22:48.645Z,86.26
2018-01-03T20:25:16.261Z,86.28
2018-01-03T20:27:43.878Z,86.42
2018-01-03T20:30:11.546Z,86.74
2018-01-03T20:32:39.174Z,86.69
2018-01-03T20:35:06.778Z,86.84
2018-01-03T20:37:34.393Z,86.84
2018-01-03T20:40:01.998Z,86.79
2018-01-03T20:42:29.655Z,86.80
2018-01-03T20:44:57.275Z,86.77
2018-01-03T20:47:24.882Z,86.59
2018-01-03T20:49:52.506Z,86.51
2018-01-03T20:52:20.189Z,86.45
2018-01-03T20:54:47.854Z,86.41
2018-01-03T20:57:15.449Z,86.52
2018-01-03T20:59:43.041Z,86.11
2018-01-03T21:02:10.653Z,86.07
2018-01-03T21:04:38.312Z,86.10
2018-01-03T21:07:05.996Z,86.67
2018-01-03T21:09:33.590Z,86.72
2018-01-03T21:12:01.193Z,86.47
2018-01-03T21:14:28.810Z,86.61
2018-01-03T21:16:56.422Z,86.90
2018-01-03T21:19:24.127Z,87.33
2018-01-03T21:21:51.722Z,87.45
2018-01-03T21:24:19.324Z,87.63
2018-01-03T21:26:46.925Z,87.72
2018-01-03T21:29:14.583Z,87.51
2018-01-03T21:31:42.242Z,87.28
2018-01-03T21:34:09.838Z,87.29
2018-01-03T21:36:37.434Z,87.50
2018-01-03T21:39:05.147Z,87.88
2018-01-03T21:41:32.746Z,87.76
2018-01-03T21:44:00.392Z,87.42
2018-01-03T21:46:27.998Z,87.27
2018-01-03T21:48:55.591Z,87.26
2018-01-03T21:51:23.198Z,87.11
2018-01-03T21:53:50.855Z,87.25
2018-01-03T21:56:18.566Z,87.25
2018-01-03T21:58:47.044Z,87.53
2018-01-03T22:01:14.716Z,87.58
2018-01-03T22:03:42.327Z,87.66
2018-01-03T22:06:09.938Z,87.75
2018-01-03T22:08:37.654Z,87.80
2018-01-03T22:11:05.259Z,88.05
2018-01-03T22:13:32.930Z,88.11
2018-01-03T22:16:00.544Z,88.32
2018-01-03T22:18:28.146Z,88.47
2018-01-03T22:20:55.815Z,88.56
2018-01-03T22:23:23.414Z,88.65
2018-01-03T22:25:51.018Z,88.80
2018-01-03T22:28:18.626Z,89.34
2018-01-03T22:30:46.274Z,89.31
2018-01-03T22:33:13.926Z,89.22
2018-01-03T22:35:41.591Z,89.24
2018-01-03T22:38:09.194Z,89.50
2018-01-03T22:40:36.803Z,89.93
2018-01-03T22:43:04.406Z,90.16
2018-01-03T22:45:32.055Z,89.96
2018-01-03T22:47:59.650Z,89.64
2018-01-03T22:50:27.242Z,89.30
2018-01-03T22:52:54.850Z,89.19
2018-01-03T22:55:22.505Z,89.11
2018-01-03T22:57:50.215Z,89.10
2018-01-03T23:00:17.806Z,88.48
2018-01-03T23:02:45.467Z,88.14
2018-01-03T23:05:13.071Z,88.09
2018-01-03T23:07:40.663Z,88.02
2018-01-03T23:10:08.372Z,87.84
2018-01-03T23:12:35.974Z,87.38
2018-01-03T23:15:03.594Z,86.75
2018-01-03T23:17:31.202Z,86.55
2018-01-03T23:19:58.861Z,86.40
2018-01-03T23:22:26.537Z,86.36
2018-01-03T23:24:54.138Z,86.20
2018-01-03T23:27:21.735Z,86.02
2018-01-03T23:29:49.343Z,86.07
2018-01-03T23:32:17.012Z,86.17
2018-01-03T23:34:44.722Z,86.48
2018-01-03T23:37:12.378Z,86.55
2018-01-03T23:39:40.036Z,86.65
2018-01-03T23:42:07.705Z,87.04
2018-01-03T23:44:35.367Z,87.23
2018-01-03T23:47:03.091Z,87.35
2018-01-03T23:49:30.752Z,87.31
2018-01-03T23:51:58.407Z,87.19
2018-01-03T23:54:26.020Z,86.97
2018-01-03T23:56:53.618Z,86.61
2018-01-03T23:59:21.373Z,86.68
